Latest Weather Observations for Bridgetown

IDW60801

Issued at 12:33 pm WST Thursday 27 July 2017 (issued every 30 minutes, with the page automatically refreshed every 10 minutes)

About weather observations | Map of weather stations | Latest weather observations for WA | Other Formats
Station Details ID: 009617 Name: BRIDGETOWN Lat: -33.95 Lon: 116.13 Height: 178.66 m
Data from the previous 72 hours. | See also: Recent months at Bridgetown
Date/Time
WST
Temp
°C
App
Temp
°C
Dew
Point
°C
Rel
Hum
%
Delta-T
°C
Wind Press
QNH
hPa
Press
MSL
hPa
Rain since
9am
mm
Dir  Spd
km/h
Gust
km/h
Spd
kts
Gust
kts
27/12:30pm 15.9 14.1 13.4 85 1.4 N 15 22 8 12 1009.9 1010.0 0.4
27/12:00pm 15.8 13.9 13.1 84 1.5 N 15 26 8 14 1011.0 1011.1 0.2
27/11:30am 15.2 13.1 12.5 84 1.5 N 15 22 8 12 1011.8 1012.0 0.2
27/11:00am 14.1 12.2 11.8 86 1.2 N 13 24 7 13 1012.8 1013.0 0.2
27/10:30am 13.1 11.4 11.3 89 1.0 N 11 17 6 9 1013.3 1013.5 0.2
27/10:00am 11.0 8.9 9.6 91 0.7 N 11 17 6 9 1013.9 1014.1 0.2
27/09:30am 10.3 8.1 9.2 93 0.6 N 11 20 6 11 1014.3 1014.5 0.2
27/09:00am 9.4 7.0 8.8 96 0.3 N 11 19 6 10 1014.5 1014.7 2.4
27/08:30am 6.8 6.0 6.7 99 0.0 CALM 0 4 0 2 1014.8 1014.9 2.2
27/08:00am 4.8 3.6 4.7 99 0.0 CALM 0 0 0 0 1015.6 1015.7 2.2
27/07:30am 3.8 2.4 3.5 98 0.1 CALM 0 0 0 0 1015.5 1015.6 2.2
27/07:00am 3.3 1.8 3.0 98 0.1 CALM 0 0 0 0 1015.8 1015.9 2.2
27/06:30am 2.3 0.6 2.0 98 0.1 CALM 0 0 0 0 1016.1 1016.3 2.2
27/06:00am 2.2 0.5 1.9 98 0.1 CALM 0 0 0 0 1016.1 1016.3 2.2
27/05:30am 2.5 0.9 2.2 98 0.1 CALM 0 0 0 0 1016.1 1016.3 2.2
27/05:00am 2.9 1.3 2.6 98 0.1 CALM 0 0 0 0 1016.4 1016.6 2.2
27/04:30am 3.2 1.7 2.9 98 0.1 CALM 0 0 0 0 1016.8 1017.0 2.2
27/04:00am 3.1 1.6 2.8 98 0.1 CALM 0 0 0 0 1017.0 1017.2 2.2
27/03:30am 3.4 1.9 3.0 97 0.2 CALM 0 0 0 0 1017.3 1017.5 2.2
27/03:00am 3.8 2.4 3.4 97 0.2 CALM 0 0 0 0 1017.5 1017.7 2.2
27/02:30am 4.4 3.1 4.0 97 0.2 CALM 0 0 0 0 1017.9 1018.1 2.2
27/02:00am 4.4 3.1 4.0 97 0.2 CALM 0 0 0 0 1018.5 1018.7 2.2
27/01:30am 4.1 2.7 3.7 97 0.2 CALM 0 0 0 0 1018.7 1018.9 2.0
27/01:00am 4.3 2.9 3.7 96 0.3 CALM 0 0 0 0 1018.6 1018.8 2.0
27/12:30am 5.1 3.9 4.5 96 0.3 CALM 0 0 0 0 1018.8 1019.0 2.0
27/12:00am 5.2 4.0 4.6 96 0.3 CALM 0 0 0 0 1019.2 1019.4 2.0
 
Date/Time
WST
Temp
°C
App
Temp
°C
Dew
Point
°C
Rel
Hum
%
Delta-T
°C
Wind Press
QNH
hPa
Press
MSL
hPa
Rain since
9am
mm
Dir  Spd
km/h
Gust
km/h
Spd
kts
Gust
kts
26/11:30pm 5.9 4.8 5.3 96 0.3 CALM 0 0 0 0 1019.5 1019.7 2.0
26/11:00pm 6.4 5.4 5.7 95 0.3 CALM 0 0 0 0 1019.5 1019.7 2.0
26/10:30pm 7.3 6.5 6.6 95 0.3 CALM 0 0 0 0 1019.8 1020.0 2.0
26/10:00pm 7.8 7.1 6.9 94 0.4 CALM 0 2 0 1 1019.8 1020.0 2.0
26/09:30pm 8.0 7.3 7.1 94 0.4 CALM 0 0 0 0 1019.8 1020.0 2.0
26/09:00pm 8.6 7.3 7.7 94 0.4 NNW 4 6 2 3 1019.6 1019.8 2.0
26/08:30pm 8.9 8.0 7.8 93 0.5 NNW 2 4 1 2 1019.6 1019.8 2.0
26/08:00pm 9.4 8.9 7.8 90 0.8 CALM 0 0 0 0 1019.4 1019.6 2.0
26/07:30pm 10.0 8.8 7.9 87 1.0 NW 4 4 2 2 1019.1 1019.3 2.0
26/07:00pm 10.8 9.9 7.7 81 1.5 NNW 2 4 1 2 1018.8 1019.0 2.0
26/06:30pm 11.5 10.6 7.8 78 1.8 NNW 2 6 1 3 1018.4 1018.6 2.0
26/06:00pm 12.4 11.5 7.7 73 2.3 NW 2 6 1 3 1018.0 1018.2 2.0
26/05:30pm 13.1 11.7 7.3 68 2.8 W 4 13 2 7 1017.8 1018.0 2.0
26/05:00pm 13.5 11.9 7.9 69 2.8 NW 6 9 3 5 1017.4 1017.6 2.0
26/04:30pm 14.0 13.0 8.8 71 2.7 NW 4 9 2 5 1017.3 1017.5 2.0
26/04:00pm 14.3 13.9 9.7 74 2.4 WNW 2 6 1 3 1016.7 1016.9 2.0
26/03:30pm 14.5 13.1 9.5 72 2.6 WNW 7 13 4 7 1016.0 1016.2 2.0
26/03:00pm 14.9 13.5 9.7 71 2.7 W 7 19 4 10 1015.9 1016.1 2.0
26/02:30pm 14.6 13.4 10.2 75 2.3 WSW 7 19 4 10 1015.9 1016.1 2.0
26/02:00pm 14.7 13.8 11.5 81 1.7 W 7 19 4 10 1015.8 1015.9 2.0
26/01:30pm 14.6 13.4 10.4 76 2.2 WSW 7 19 4 10 1015.2 1015.3 1.2
26/01:00pm 15.1 14.4 12.1 82 1.6 WNW 7 15 4 8 1015.2 1015.3 1.2
26/12:30pm 14.8 13.1 11.2 79 1.9 WSW 11 20 6 11 1015.2 1015.3 0.8
26/12:00pm 15.3 13.4 11.7 79 2.0 W 13 22 7 12 1015.2 1015.3 0.8
26/11:30am 14.1 12.5 11.4 84 1.5 W 11 28 6 15 1015.3 1015.4 0.8
26/11:00am 14.0 11.6 11.3 84 1.4 W 15 28 8 15 1015.0 1015.1 0.8
26/10:30am 15.3 14.0 12.6 84 1.5 NW 11 22 6 12 1014.2 1014.4 0.0
26/10:00am 14.5 13.7 12.9 90 0.9 NW 9 15 5 8 1014.4 1014.6 0.0
26/09:30am 13.6 13.2 12.3 92 0.7 NW 6 13 3 7 1014.2 1014.4 0.0
26/09:00am 13.7 13.8 12.8 94 0.5 NW 4 9 2 5 1014.0 1014.2 27.0
26/08:30am 13.4 13.8 12.5 94 0.5 W 2 7 1 4 1013.5 1013.7 26.8
26/08:00am 13.3 12.9 12.4 94 0.5 WNW 6 13 3 7 1013.3 1013.5 25.4
26/07:30am 13.8 13.3 12.7 93 0.6 NNW 7 13 4 7 1012.9 1013.1 20.2
26/07:00am 14.7 12.9 13.2 91 0.8 NNW 15 35 8 19 1011.7 1011.9 12.8
26/06:30am 14.2 13.1 13.2 94 0.6 NNW 11 20 6 11 1011.9 1012.1 12.0
26/06:00am 14.0 13.6 12.9 93 0.6 NNW 7 15 4 8 1011.8 1012.0 10.2
26/05:30am 13.7 13.8 12.8 94 0.5 NNW 4 7 2 4 1011.9 1012.1 9.2
26/05:00am 13.8 13.5 12.7 93 0.6 NNW 6 11 3 6 1012.3 1012.5 8.0
26/04:30am 14.2 13.2 12.4 89 1.0 NNW 9 19 5 10 1012.7 1012.9 7.2
26/04:00am 14.4 13.8 12.4 88 1.1 NW 7 15 4 8 1012.9 1013.1 6.4
26/03:30am 14.4 13.6 12.8 90 0.9 NNW 9 15 5 8 1013.2 1013.4 6.4
26/03:00am 14.1 13.8 12.8 92 0.7 NNW 6 13 3 7 1013.2 1013.4 6.4
26/02:30am 14.2 13.8 13.1 93 0.6 NNW 7 15 4 8 1013.3 1013.5 6.4
26/02:00am 14.2 14.1 13.2 94 0.6 NNW 6 11 3 6 1013.7 1013.9 5.6
26/01:30am 14.2 14.0 13.1 93 0.6 NW 6 9 3 5 1014.0 1014.2 3.8
26/01:00am 14.3 13.5 13.0 92 0.7 NW 9 17 5 9 1014.3 1014.5 3.6
26/12:30am 14.4 13.7 13.1 92 0.7 NNW 9 20 5 11 1014.6 1014.8 2.0
26/12:00am 14.5 13.3 12.7 89 1.0 NNW 11 19 6 10 1014.6 1014.8 1.0
 
Date/Time
WST
Temp
°C
App
Temp
°C
Dew
Point
°C
Rel
Hum
%
Delta-T
°C
Wind Press
QNH
hPa
Press
MSL
hPa
Rain since
9am
mm
Dir  Spd
km/h
Gust
km/h
Spd
kts
Gust
kts
25/11:30pm 14.4 12.7 12.6 89 1.0 NNW 13 20 7 11 1015.0 1015.1 1.0
25/11:00pm 13.3 12.6 12.0 92 0.7 N 7 13 4 7 1015.3 1015.4 1.0
25/10:30pm 13.9 12.0 11.9 88 1.1 NNW 13 20 7 11 1015.4 1015.5 0.4
25/10:00pm 14.1 12.6 11.8 86 1.2 N 11 17 6 9 1015.8 1015.9 0.2
25/09:30pm 13.9 11.6 11.6 86 1.2 NNW 15 24 8 13 1016.2 1016.4 0.2
25/09:00pm 13.9 12.8 11.8 87 1.1 NNW 9 19 5 10 1016.4 1016.6 0.2
25/08:30pm 14.6 12.2 11.4 81 1.7 NNW 15 24 8 13 1016.3 1016.5 0.2
25/08:00pm 14.3 12.2 11.1 81 1.7 NNW 13 22 7 12 1016.2 1016.4 0.2
25/07:30pm 14.5 12.5 11.5 82 1.6 N 13 22 7 12 1016.5 1016.7 0.2
25/07:00pm 14.2 12.1 11.2 82 1.6 NNW 13 20 7 11 1016.6 1016.8 0.2
25/06:30pm 14.1 12.0 11.1 82 1.6 N 13 17 7 9 1016.1 1016.3 0.2
25/06:00pm 14.0 12.8 11.5 85 1.3 NNW 9 15 5 8 1016.4 1016.6 0.2
25/05:30pm 14.0 12.7 11.3 84 1.4 NNW 9 17 5 9 1016.6 1016.8 0.2
25/05:00pm 14.4 12.4 11.6 83 1.5 NNW 13 24 7 13 1016.8 1017.0 0.2
25/04:30pm 14.2 12.3 11.7 85 1.4 NNW 13 19 7 10 1016.6 1016.8 0.2
25/04:00pm 15.5 12.0 10.9 74 2.5 NNW 20 32 11 17 1016.8 1017.0 0.2
25/03:30pm 15.8 13.8 10.3 70 2.9 NNW 11 20 6 11 1016.8 1017.0 0.2
25/03:00pm 16.1 12.7 10.6 70 2.9 NNW 19 33 10 18 1017.0 1017.2 0.2
25/02:30pm 16.1 12.1 10.4 69 3.0 NNW 22 35 12 19 1016.6 1016.8 0.2
25/02:00pm 16.3 14.2 11.0 71 2.9 NW 13 24 7 13 1017.2 1017.4 0.2
25/01:30pm 16.9 14.5 11.4 70 3.0 NNW 15 30 8 16 1017.1 1017.3 0.2
25/01:00pm 16.1 13.1 10.6 70 2.9 NNW 17 32 9 17 1017.2 1017.4 0.2
25/12:30pm 15.7 12.8 11.1 74 2.5 NNW 17 22 9 12 1018.0 1018.2 0.2
25/12:00pm 15.9 14.3 11.5 75 2.4 NNW 11 17 6 9 1018.4 1018.6 0.2
25/11:30am 14.3 12.7 11.5 83 1.5 N 11 17 6 9 1018.9 1019.1 0.2
25/11:00am 13.4 13.0 12.9 97 0.3 NNW 7 11 4 6 1019.3 1019.5 0.2
25/10:30am 12.0 12.2 11.8 99 0.1 NNE 2 4 1 2 1019.5 1019.7 0.2
25/10:00am 10.2 10.3 10.1 99 0.1 CALM 0 0 0 0 1020.1 1020.3 0.0
25/09:30am 8.7 8.4 8.6 99 0.0 CALM 0 0 0 0 1019.9 1020.1 0.0
25/09:00am 7.9 7.4 7.8 99 0.0 CALM 0 0 0 0 1019.7 1019.9 3.8
25/08:30am 7.5 6.9 7.4 99 0.0 CALM 0 0 0 0 1019.6 1019.8 3.8
25/08:00am 6.8 6.0 6.7 99 0.0 CALM 0 0 0 0 1019.6 1019.8 3.8
25/07:30am 6.5 5.7 6.4 99 0.0 CALM 0 0 0 0 1019.7 1019.9 3.8
25/07:00am 6.5 5.7 6.4 99 0.0 CALM 0 0 0 0 1019.3 1019.5 3.8
25/06:30am 6.5 5.7 6.4 99 0.0 CALM 0 0 0 0 1018.9 1019.1 3.8
25/06:00am 6.6 5.8 6.3 98 0.1 CALM 0 0 0 0 1018.7 1018.9 3.8
25/05:30am 6.7 5.9 6.4 98 0.1 CALM 0 0 0 0 1018.6 1018.8 3.8
25/05:00am 6.5 5.6 6.2 98 0.1 CALM 0 0 0 0 1018.8 1019.0 3.8
25/04:30am 6.3 5.4 6.0 98 0.1 CALM 0 0 0 0 1018.7 1018.9 3.8
25/04:00am 6.1 5.1 5.8 98 0.1 CALM 0 0 0 0 1018.8 1019.0 3.8
25/03:30am 6.0 5.0 5.7 98 0.1 CALM 0 0 0 0 1018.9 1019.1 3.6
25/03:00am 5.8 4.8 5.5 98 0.1 CALM 0 0 0 0 1018.7 1018.9 3.6
25/02:30am 5.8 4.8 5.5 98 0.1 CALM 0 0 0 0 1018.7 1018.9 3.6
25/02:00am 6.2 5.3 5.9 98 0.1 CALM 0 0 0 0 1018.6 1018.8 3.6
25/01:30am 6.3 5.4 6.0 98 0.1 CALM 0 0 0 0 1018.9 1019.1 3.6
25/01:00am 6.5 5.6 6.2 98 0.1 CALM 0 0 0 0 1019.0 1019.2 3.6
25/12:30am 6.8 6.0 6.5 98 0.1 CALM 0 0 0 0 1019.0 1019.2 3.6
25/12:00am 7.1 6.4 6.8 98 0.1 CALM 0 0 0 0 1018.9 1019.1 3.6
 
Date/Time
WST
Temp
°C
App
Temp
°C
Dew
Point
°C
Rel
Hum
%
Delta-T
°C
Wind Press
QNH
hPa
Press
MSL
hPa
Rain since
9am
mm
Dir  Spd
km/h
Gust
km/h
Spd
kts
Gust
kts
24/11:30pm 7.6 7.0 7.2 97 0.2 CALM 0 0 0 0 1018.9 1019.1 3.6
24/11:00pm 8.1 7.6 7.7 97 0.2 CALM 0 0 0 0 1018.8 1019.0 3.6
24/10:30pm 8.3 7.8 7.9 97 0.2 CALM 0 0 0 0 1018.9 1019.1 3.6
24/10:00pm 8.8 8.4 8.4 97 0.2 CALM 0 0 0 0 1018.7 1018.9 3.6
24/09:30pm 9.3 9.0 8.8 97 0.2 CALM 0 4 0 2 1018.8 1019.0 3.6
24/09:00pm 9.7 9.2 9.2 97 0.2 NW 2 2 1 1 1018.8 1019.0 3.6
24/08:30pm 9.6 8.7 9.1 97 0.2 NNW 4 6 2 3 1018.6 1018.8 3.6
24/08:00pm 8.9 8.5 8.3 96 0.3 CALM 0 0 0 0 1018.7 1018.9 3.2
24/07:30pm 9.1 8.8 8.5 96 0.3 CALM 0 2 0 1 1018.5 1018.7 3.2
24/07:00pm 9.1 8.8 8.5 96 0.3 CALM 0 0 0 0 1018.4 1018.6 3.2
24/06:30pm 9.7 8.7 8.9 95 0.4 NNW 4 4 2 2 1018.1 1018.3 3.2
24/06:00pm 10.4 9.6 9.5 94 0.5 NW 4 4 2 2 1017.9 1018.1 3.2
24/05:30pm 11.4 11.1 10.0 91 0.7 NW 2 4 1 2 1017.7 1017.9 3.2
24/05:00pm 12.1 12.2 10.3 89 0.9 CALM 0 0 0 0 1017.5 1017.7 3.2
24/04:30pm 12.3 11.7 10.4 88 1.0 NW 4 6 2 3 1017.4 1017.6 3.2
24/04:00pm 12.3 11.6 10.2 87 1.1 WNW 4 6 2 3 1017.2 1017.4 3.2
24/03:30pm 12.2 11.6 10.3 88 1.0 WNW 4 9 2 5 1016.8 1017.0 3.2
24/03:00pm 12.3 11.2 10.5 89 0.9 NW 7 13 4 7 1016.8 1017.0 3.0
24/02:30pm 12.3 11.5 10.9 91 0.7 WNW 6 17 3 9 1016.6 1016.8 2.8
24/02:00pm 13.2 11.6 8.7 74 2.3 NW 7 15 4 8 1016.3 1016.5 0.6
24/01:30pm 14.8 13.8 9.0 68 3.0 SSW 4 7 2 4 1016.2 1016.4 0.0
24/01:00pm 14.0 12.3 8.2 68 2.9 SW 7 13 4 7 1016.6 1016.8 0.0

Other Formats:

Comma delimited format used in spreadsheet applications
http://www.bom.gov.au/fwo/IDW60801/IDW60801.95632.axf

JavaScript Object Notation format (JSON) in row-major order
http://www.bom.gov.au/fwo/IDW60801/IDW60801.95632.json